Time;durP1;ratioP1;P1;durP2;ratioP2;P2;SDS_P1;SDS_P2;PMS_P1;PMS_P2;Temp;Humidity;BMP_temperature;BMP_pressure;BME280_temperature;BME280_humidity;BME280_pressure;Samples;Min_cycle;Max_cycle;Signal;HPM_P1;HPM_P2
2023/11/30 00:00:14;;;;;;;7.40;3.80;;;;;;;1.21;100.00;98147.84;5016220;28;20076;-37
2023/11/30 00:02:40;;;;;;;6.38;3.20;;;;;;;1.23;100.00;98135.84;5020157;28;20033;-45
2023/11/30 00:05:08;;;;;;;11.07;4.43;;;;;;;1.01;100.00;98102.22;5027360;28;20040;-38
2023/11/30 00:07:35;;;;;;;7.68;4.20;;;;;;;1.16;100.00;98135.13;5027591;28;20554;-37
2023/11/30 00:10:02;;;;;;;9.77;4.35;;;;;;;1.16;100.00;98127.47;5021820;28;20129;-38
2023/11/30 00:12:31;;;;;;;9.23;4.32;;;;;;;1.12;100.00;98117.31;5025335;28;20142;-37
2023/11/30 00:14:57;;;;;;;6.65;3.83;;;;;;;1.01;100.00;98091.97;5026954;28;20033;-38
2023/11/30 00:17:23;;;;;;;9.85;4.40;;;;;;;1.12;100.00;98117.31;5030096;28;20071;-38
2023/11/30 00:19:49;;;;;;;6.38;3.60;;;;;;;1.16;100.00;98113.81;5043569;28;20076;-38
2023/11/30 00:22:15;;;;;;;7.10;3.83;;;;;;;1.20;100.00;98111.16;5027750;28;20033;-37
2023/11/30 00:24:41;;;;;;;7.72;4.35;;;;;;;1.09;100.00;98105.47;5027824;28;20057;-38
2023/11/30 00:27:07;;;;;;;9.48;4.03;;;;;;;0.93;100.00;98072.56;5023173;28;20042;-38
2023/11/30 00:29:33;;;;;;;6.38;3.35;;;;;;;1.16;100.00;98104.44;5027518;28;20048;-37
2023/11/30 00:31:58;;;;;;;4.20;2.80;;;;;;;1.16;100.00;98098.47;5016500;28;20053;-38
2023/11/30 00:34:24;;;;;;;7.10;3.22;;;;;;;1.17;100.00;98092.47;5027679;28;20087;-37
2023/11/30 00:36:51;;;;;;;7.68;3.72;;;;;;;1.16;100.00;98093.34;5020406;28;20468;-41
2023/11/30 00:39:17;;;;;;;8.07;2.92;;;;;;;1.19;100.00;98086.47;5030589;28;20049;-38
2023/11/30 00:41:43;;;;;;;6.88;2.90;;;;;;;1.18;100.00;98089.03;4998714;28;20034;-37
2023/11/30 00:44:09;;;;;;;5.53;2.88;;;;;;;1.24;100.00;98089.75;5024157;28;20106;-37
2023/11/30 00:46:37;;;;;;;5.43;2.90;;;;;;;1.27;100.00;98089.69;4998931;28;20049;-37
2023/11/30 00:49:04;;;;;;;4.10;2.47;;;;;;;1.27;100.00;98091.41;5025406;28;20110;-38
2023/11/30 00:51:30;;;;;;;6.03;2.47;;;;;;;1.23;100.00;98089.78;5027729;28;20037;-37
2023/11/30 00:53:56;;;;;;;5.50;2.85;;;;;;;1.17;100.00;98082.25;5012317;28;20038;-38
2023/11/30 00:56:22;;;;;;;5.88;2.60;;;;;;;0.97;100.00;98049.44;5026954;28;20131;-37
2023/11/30 00:58:47;;;;;;;8.05;3.92;;;;;;;1.16;100.00;98083.13;5013830;28;20038;-37
2023/11/30 01:01:14;;;;;;;6.18;2.90;;;;;;;0.97;100.00;98043.47;5013809;28;20529;-36
2023/11/30 01:03:39;;;;;;;6.22;3.40;;;;;;;1.11;100.00;98067.88;5019775;28;20053;-38
2023/11/30 01:06:05;;;;;;;7.82;3.28;;;;;;;1.14;100.00;98055.03;5025373;28;20049;-38
2023/11/30 01:08:31;;;;;;;5.70;2.95;;;;;;;1.19;100.00;98072.81;5020880;28;20421;-38
2023/11/30 01:10:57;;;;;;;8.95;3.50;;;;;;;1.18;100.00;98068.56;5016289;28;20045;-37
2023/11/30 01:13:23;;;;;;;8.07;3.53;;;;;;;1.20;100.00;98064.28;5027470;28;20110;-38
2023/11/30 01:15:49;;;;;;;5.55;2.33;;;;;;;1.23;100.00;98066.75;5027445;28;20564;-37
2023/11/30 01:18:15;;;;;;;6.55;2.90;;;;;;;1.04;100.00;98024.56;5028665;28;20406;-37
2023/11/30 01:20:41;;;;;;;7.13;3.38;;;;;;;1.26;100.00;98059.84;5027912;28;20048;-37
2023/11/30 01:23:07;;;;;;;7.03;2.95;;;;;;;1.23;100.00;98057.34;5027751;28;20045;-37
2023/11/30 01:25:33;;;;;;;6.05;2.60;;;;;;;1.22;100.00;98062.50;5026531;28;20045;-36
2023/11/30 01:27:58;;;;;;;5.32;2.90;;;;;;;1.19;100.00;98055.75;5010458;28;20044;-38
2023/11/30 01:30:24;;;;;;;4.57;2.17;;;;;;;1.20;100.00;98062.53;5026210;28;20071;-37
2023/11/30 01:32:50;;;;;;;4.25;2.40;;;;;;;0.92;100.00;98017.16;5028068;28;20588;-38
2023/11/30 01:35:17;;;;;;;12.93;3.35;;;;;;;1.10;100.00;98050.81;5025949;28;20071;-37
2023/11/30 01:37:44;;;;;;;4.32;2.13;;;;;;;1.13;100.00;98048.22;5048621;28;20094;-37
2023/11/30 01:40:11;;;;;;;4.70;2.20;;;;;;;1.08;100.00;98042.34;5009768;28;20433;-37
2023/11/30 01:42:38;;;;;;;3.95;2.08;;;;;;;1.12;100.00;98048.25;5026939;28;20042;-38
2023/11/30 01:45:04;;;;;;;5.38;2.88;;;;;;;1.11;100.00;98054.22;5023666;28;20041;-37
2023/11/30 01:47:36;;;;;;;7.20;2.88;;;;;;;1.12;100.00;98038.84;5023339;28;20080;-37
2023/11/30 01:50:02;;;;;;;4.25;2.20;;;;;;;1.22;100.00;98029.22;5012565;28;20038;-39
2023/11/30 01:52:33;;;;;;;5.07;2.47;;;;;;;1.24;100.00;98033.44;5026056;28;20540;-37
2023/11/30 01:55:00;;;;;;;4.78;2.22;;;;;;;1.25;100.00;98029.19;5041339;28;20038;-38
2023/11/30 01:57:27;;;;;;;4.35;2.47;;;;;;;1.17;100.00;98031.91;5030195;28;20348;-38
2023/11/30 01:59:53;;;;;;;7.68;2.70;;;;;;;1.10;100.00;98035.47;5042535;28;20057;-38
2023/11/30 02:02:19;;;;;;;3.60;2.45;;;;;;;1.07;100.00;98017.63;5024950;28;20064;-38
2023/11/30 02:04:49;;;;;;;3.67;2.10;;;;;;;1.08;100.00;98010.81;5026993;28;20049;-38
2023/11/30 02:07:15;;;;;;;4.80;2.55;;;;;;;1.17;100.00;98029.34;5027255;28;20161;-38
2023/11/30 02:09:41;;;;;;;3.75;2.13;;;;;;;1.24;100.00;98027.50;5026698;28;20533;-38
2023/11/30 02:12:07;;;;;;;3.90;2.47;;;;;;;1.23;100.00;98028.38;5042278;28;20599;-37
2023/11/30 02:14:35;;;;;;;3.70;2.20;;;;;;;1.24;100.00;98023.22;5007188;28;20048;-38
2023/11/30 02:17:02;;;;;;;3.92;2.00;;;;;;;1.21;100.00;98015.59;5019407;28;20046;-37
2023/11/30 02:19:28;;;;;;;4.78;2.25;;;;;;;1.14;100.00;98011.53;5022086;28;20061;-39
2023/11/30 02:21:54;;;;;;;3.13;1.92;;;;;;;1.27;100.00;98014.59;5054326;28;20072;-37
2023/11/30 02:24:20;;;;;;;4.55;2.60;;;;;;;1.29;100.00;98028.22;5025760;28;20844;-38
2023/11/30 02:26:46;;;;;;;14.25;2.88;;;;;;;1.31;100.00;98029.00;5025509;28;20041;-37
2023/11/30 02:29:16;;;;;;;3.22;1.92;;;;;;;1.37;100.00;98016.06;5026361;28;20076;-37
2023/11/30 02:31:43;;;;;;;5.30;2.30;;;;;;;1.22;100.00;97993.41;5025659;28;20037;-37
2023/11/30 02:34:09;;;;;;;3.13;1.80;;;;;;;1.23;100.00;97998.50;5026922;28;20127;-36
2023/11/30 02:36:36;;;;;;;4.85;2.40;;;;;;;1.38;100.00;98017.75;5022629;28;20136;-37
2023/11/30 02:39:03;;;;;;;4.00;2.17;;;;;;;1.38;100.00;98028.00;5032391;28;20052;-38
2023/11/30 02:41:30;;;;;;;5.20;2.33;;;;;;;1.32;100.00;98015.34;5025803;28;20135;-36
2023/11/30 02:43:57;;;;;;;4.95;2.70;;;;;;;1.17;100.00;97985.84;5026379;28;20040;-37
2023/11/30 02:46:23;;;;;;;5.20;2.22;;;;;;;1.28;100.00;98004.34;5006411;28;20536;-37
2023/11/30 02:48:49;;;;;;;4.78;2.70;;;;;;;1.34;100.00;98011.03;5026350;28;20037;-37
2023/11/30 02:51:15;;;;;;;8.80;3.00;;;;;;;1.30;100.00;98006.88;5026158;28;20615;-37
2023/11/30 02:53:41;;;;;;;6.75;3.13;;;;;;;1.28;100.00;98012.03;5026112;28;20624;-38
2023/11/30 02:56:07;;;;;;;4.95;2.20;;;;;;;1.23;100.00;98013.84;5025532;28;20131;-42
2023/11/30 02:58:33;;;;;;;4.40;2.53;;;;;;;1.19;100.00;98007.13;5015182;28;20041;-37
2023/11/30 03:01:02;;;;;;;4.32;2.50;;;;;;;1.18;100.00;98014.84;5023802;28;20041;-38
2023/11/30 03:03:28;;;;;;;6.07;2.55;;;;;;;1.21;100.00;97999.38;5024739;28;20049;-38
2023/11/30 03:05:54;;;;;;;3.65;2.35;;;;;;;1.23;100.00;98013.84;5013483;28;20045;-38
2023/11/30 03:08:21;;;;;;;3.42;2.00;;;;;;;1.24;100.00;98007.84;5025030;28;20053;-37
2023/11/30 03:10:47;;;;;;;5.88;2.65;;;;;;;1.22;100.00;98001.09;5025174;28;20049;-38
2023/11/30 03:13:13;;;;;;;5.20;2.40;;;;;;;0.88;100.00;97966.94;5025972;28;20422;-37
2023/11/30 03:15:44;;;;;;;5.03;2.28;;;;;;;1.15;100.00;97997.00;5057241;28;20141;-39
2023/11/30 03:18:10;;;;;;;3.85;1.67;;;;;;;1.21;100.00;98002.78;5024426;28;20038;-38
2023/11/30 03:20:36;;;;;;;5.13;2.03;;;;;;;1.21;100.00;98000.22;5026712;28;20059;-37
2023/11/30 03:23:03;;;;;;;5.25;2.17;;;;;;;1.25;100.00;98007.00;5007371;28;20129;-37
2023/11/30 03:25:29;;;;;;;2.55;1.80;;;;;;;1.17;100.00;97990.97;5023676;28;20045;-38
2023/11/30 03:27:55;;;;;;;4.43;2.38;;;;;;;1.25;100.00;98007.00;5024355;28;20044;-37
2023/11/30 03:30:21;;;;;;;4.97;2.50;;;;;;;1.25;100.00;98006.16;5027982;28;20083;-38
2023/11/30 03:32:47;;;;;;;6.97;2.72;;;;;;;1.24;100.00;98000.19;5029311;28;20061;-37
2023/11/30 03:35:13;;;;;;;4.13;2.20;;;;;;;1.24;100.00;98000.19;5029027;28;20045;-38
2023/11/30 03:37:42;;;;;;;5.93;2.10;;;;;;;1.26;100.00;98003.53;5025026;28;20045;-37
2023/11/30 03:40:10;;;;;;;10.82;3.08;;;;;;;1.33;100.00;97998.25;5019747;28;20133;-38
2023/11/30 03:42:37;;;;;;;5.55;2.90;;;;;;;1.16;100.00;97963.69;5029419;28;20037;-37
2023/11/30 03:45:04;;;;;;;3.30;1.90;;;;;;;1.38;100.00;97999.00;5011093;28;20147;-37
2023/11/30 03:47:33;;;;;;;5.43;2.63;;;;;;;1.34;100.00;98010.19;5028338;28;20041;-38
2023/11/30 03:49:58;;;;;;;8.55;2.53;;;;;;;1.35;100.00;97997.34;5013845;28;20124;-38
2023/11/30 03:52:24;;;;;;;5.75;2.63;;;;;;;1.25;100.00;97978.84;5028481;28;20077;-39
2023/11/30 03:54:50;;;;;;;4.57;2.70;;;;;;;1.47;100.00;98002.16;5029489;28;20505;-37
2023/11/30 03:57:16;;;;;;;6.63;2.95;;;;;;;1.34;100.00;97969.22;5027174;28;20124;-37
2023/11/30 03:59:43;;;;;;;4.03;2.30;;;;;;;1.48;100.00;97991.03;5028274;28;20034;-37
2023/11/30 04:02:09;;;;;;;6.47;2.78;;;;;;;1.50;100.00;97985.88;5011803;28;20163;-38
2023/11/30 04:04:38;;;;;;;5.47;2.50;;;;;;;1.52;100.00;97979.84;5012485;28;20045;-37
2023/11/30 04:07:05;;;;;;;7.00;3.33;;;;;;;1.50;100.00;97983.31;5051629;28;20517;-37
2023/11/30 04:09:31;;;;;;;4.63;2.60;;;;;;;1.37;100.00;97956.34;5015905;28;20068;-39
2023/11/30 04:11:58;;;;;;;6.70;3.15;;;;;;;1.52;100.00;97984.94;5025304;28;20533;-38
2023/11/30 04:14:23;;;;;;;10.43;3.85;;;;;;;1.55;100.00;97986.59;4998743;28;20051;-38
2023/11/30 04:16:49;;;;;;;4.22;2.90;;;;;;;1.48;100.00;97980.78;5014614;28;20037;-39
2023/11/30 04:19:15;;;;;;;5.43;2.97;;;;;;;1.49;100.00;97985.03;5036715;28;20033;-36
2023/11/30 04:21:41;;;;;;;5.20;3.17;;;;;;;1.28;100.00;97949.75;5038597;28;20079;-39
2023/11/30 04:24:07;;;;;;;6.20;3.30;;;;;;;1.48;100.00;97982.50;5019444;28;20064;-38
2023/11/30 04:26:33;;;;;;;5.65;3.05;;;;;;;1.52;100.00;97984.94;5035592;28;20463;-38
2023/11/30 04:28:59;;;;;;;9.70;3.20;;;;;;;1.56;100.00;97981.47;5035783;28;20067;-38
2023/11/30 04:31:25;;;;;;;11.73;3.05;;;;;;;1.55;100.00;97981.50;5036181;28;20466;-37
2023/11/30 04:33:51;;;;;;;5.22;3.00;;;;;;;1.58;100.00;97986.53;5026855;28;20136;-37
2023/11/30 04:36:17;;;;;;;4.88;2.83;;;;;;;1.68;100.00;97985.41;5026639;28;20068;-38
2023/11/30 04:38:44;;;;;;;5.32;3.00;;;;;;;1.65;100.00;97972.69;5055607;28;20041;-38
2023/11/30 04:41:10;;;;;;;9.02;3.88;;;;;;;1.49;100.00;97949.19;5032520;28;20046;-39
2023/11/30 04:43:37;;;;;;;5.63;3.22;;;;;;;1.48;100.00;97951.78;5022087;28;20033;-38
2023/11/30 04:46:04;;;;;;;8.85;3.30;;;;;;;1.67;100.00;97986.31;5008531;28;20050;-37
2023/11/30 04:48:30;;;;;;;8.77;3.40;;;;;;;1.63;100.00;97975.28;5027027;28;20041;-37
2023/11/30 04:50:56;;;;;;;12.68;3.67;;;;;;;1.62;100.00;97968.47;5028234;28;20041;-37
2023/11/30 04:53:22;;;;;;;5.78;3.03;;;;;;;1.68;100.00;97972.59;5025382;28;20037;-37
2023/11/30 04:55:48;;;;;;;8.20;4.00;;;;;;;1.61;100.00;97974.50;5026290;28;20041;-37
2023/11/30 04:58:14;;;;;;;7.38;3.60;;;;;;;1.68;100.00;97972.59;5010796;28;20043;-36
2023/11/30 05:00:41;;;;;;;9.70;3.47;;;;;;;1.66;100.00;97979.50;5024024;28;20049;-37
2023/11/30 05:03:08;;;;;;;7.25;3.38;;;;;;;1.68;100.00;97976.00;5021210;28;20044;-36
2023/11/30 05:05:34;;;;;;;8.18;3.47;;;;;;;1.71;100.00;97975.09;5024114;28;20042;-37
2023/11/30 05:08:00;;;;;;;8.13;4.25;;;;;;;1.75;100.00;97978.41;5025352;28;20468;-38
2023/11/30 05:10:26;;;;;;;8.10;3.70;;;;;;;1.80;100.00;97977.41;5041354;28;20049;-36
2023/11/30 05:12:52;;;;;;;9.13;4.07;;;;;;;1.82;100.00;97980.78;5007201;28;20558;-37
2023/11/30 05:15:18;;;;;;;7.05;3.78;;;;;;;1.77;100.00;97968.97;5027491;28;20129;-37
2023/11/30 05:17:44;;;;;;;8.25;4.20;;;;;;;1.80;100.00;97977.41;5034488;28;20785;-38
2023/11/30 05:20:10;;;;;;;9.65;4.40;;;;;;;1.76;100.00;97974.97;5042793;28;20095;-37
2023/11/30 05:22:37;;;;;;;8.07;4.10;;;;;;;1.83;100.00;97979.06;4990389;28;1224698;-36
2023/11/30 05:25:03;;;;;;;11.32;5.93;;;;;;;1.81;100.00;97975.69;5035320;28;20040;-38
2023/11/30 05:27:31;;;;;;;15.85;4.72;;;;;;;1.87;100.00;97978.09;5036135;28;20479;-37
2023/11/30 05:29:58;;;;;;;11.43;4.50;;;;;;;1.86;100.00;97971.28;5034462;28;20045;-37
2023/11/30 05:32:24;;;;;;;19.40;4.25;;;;;;;1.85;100.00;97975.56;5035170;28;20041;-36
2023/11/30 05:34:51;;;;;;;9.38;5.00;;;;;;;1.81;100.00;97979.09;5055464;28;20057;-36
2023/11/30 05:37:18;;;;;;;6.90;3.90;;;;;;;1.85;100.00;97979.84;5031817;28;20049;-37
2023/11/30 05:39:44;;;;;;;8.20;4.70;;;;;;;1.86;100.00;97978.97;5026543;28;20048;-37
2023/11/30 05:42:11;;;;;;;10.52;4.40;;;;;;;1.78;100.00;97957.84;5026734;28;20037;-37
2023/11/30 05:44:37;;;;;;;14.70;5.13;;;;;;;1.97;100.00;97980.34;5012387;28;20152;-38
2023/11/30 05:47:05;;;;;;;13.38;5.05;;;;;;;1.94;100.00;97977.84;5027709;28;20049;-37
2023/11/30 05:49:31;;;;;;;10.15;5.65;;;;;;;2.01;100.00;97981.94;5026336;28;20045;-37
2023/11/30 05:51:58;;;;;;;8.23;4.80;;;;;;;2.13;100.00;97984.19;5027024;28;20041;-37
2023/11/30 05:54:24;;;;;;;8.82;4.93;;;;;;;2.23;100.00;97989.03;5007987;28;20680;-37
2023/11/30 05:56:51;;;;;;;9.68;4.93;;;;;;;2.21;100.00;97989.06;5010496;28;20079;-37
2023/11/30 05:59:17;;;;;;;6.85;3.92;;;;;;;2.23;100.00;97986.47;5009665;28;20057;-36
2023/11/30 06:01:43;;;;;;;13.35;5.15;;;;;;;2.25;100.00;97984.72;5026736;28;20056;-37
2023/11/30 06:04:10;;;;;;;13.55;5.10;;;;;;;2.30;100.00;97985.44;5024600;28;20384;-36
2023/11/30 06:06:36;;;;;;;14.30;4.95;;;;;;;2.19;100.00;97961.81;5010149;28;20041;-37
2023/11/30 06:09:01;;;;;;;8.95;5.55;;;;;;;2.39;100.00;97985.16;5024343;28;20049;-38
2023/11/30 06:11:27;;;;;;;10.48;4.60;;;;;;;2.33;100.00;97990.47;5027406;28;20051;-36
2023/11/30 06:13:53;;;;;;;9.73;5.05;;;;;;;2.37;100.00;97995.44;5026347;28;20045;-37
2023/11/30 06:16:19;;;;;;;9.35;5.15;;;;;;;2.31;100.00;97989.66;5026617;28;20120;-37
2023/11/30 06:18:45;;;;;;;9.50;4.85;;;;;;;2.25;100.00;97992.41;5027202;28;20041;-36
2023/11/30 06:21:11;;;;;;;9.13;4.88;;;;;;;2.09;100.00;97968.94;5024952;28;20040;-37
2023/11/30 06:23:37;;;;;;;12.48;7.03;;;;;;;2.32;100.00;97999.88;5027273;28;20034;-36
2023/11/30 06:26:03;;;;;;;13.05;6.13;;;;;;;2.34;100.00;97999.84;5026769;28;20030;-36
2023/11/30 06:28:30;;;;;;;8.43;4.57;;;;;;;2.39;100.00;97990.28;5009347;28;20041;-37
2023/11/30 06:30:56;;;;;;;10.48;4.70;;;;;;;2.41;100.00;97994.47;5008864;28;20502;-37
2023/11/30 06:33:23;;;;;;;8.75;5.15;;;;;;;2.38;100.00;97988.59;5026747;28;20068;-36
2023/11/30 06:35:49;;;;;;;11.73;4.75;;;;;;;2.45;100.00;97997.81;5023870;28;20044;-37
2023/11/30 06:38:15;;;;;;;10.13;5.18;;;;;;;2.43;100.00;98002.13;5017081;28;20110;-38
2023/11/30 06:40:41;;;;;;;10.35;4.65;;;;;;;2.36;100.00;98011.72;5009136;28;20046;-37
2023/11/30 06:43:07;;;;;;;11.57;5.43;;;;;;;2.33;100.00;98011.81;5021216;28;20047;-36
2023/11/30 06:45:33;;;;;;;10.02;5.13;;;;;;;2.15;100.00;97983.31;5019593;28;20045;-37
2023/11/30 06:47:59;;;;;;;11.95;6.25;;;;;;;2.39;100.00;98016.78;5008485;28;20049;-37
2023/11/30 06:50:25;;;;;;;10.05;5.13;;;;;;;2.43;100.00;98017.50;5026099;28;20048;-37
2023/11/30 06:52:51;;;;;;;10.50;5.53;;;;;;;2.41;100.00;98016.72;5037959;28;20088;-37
2023/11/30 06:55:17;;;;;;;11.60;5.45;;;;;;;2.49;100.00;98020.75;5016955;28;20274;-38
2023/11/30 06:57:44;;;;;;;14.15;5.75;;;;;;;2.50;100.00;98016.47;5014700;28;20649;-38
2023/11/30 07:00:11;;;;;;;10.00;4.78;;;;;;;2.51;100.00;98023.28;5013417;28;20041;-36
2023/11/30 07:02:37;;;;;;;8.65;4.13;;;;;;;2.50;100.00;98031.84;5012043;28;20857;-37
2023/11/30 07:05:07;;;;;;;9.68;5.22;;;;;;;2.23;100.00;98007.00;5018867;28;20049;-37
2023/11/30 07:07:33;;;;;;;13.73;5.97;;;;;;;2.32;100.00;98025.50;5015937;28;20045;-37
2023/11/30 07:09:59;;;;;;;11.20;5.80;;;;;;;2.34;100.00;98017.78;5021477;28;20045;-37
2023/11/30 07:12:26;;;;;;;13.05;6.10;;;;;;;2.35;100.00;98015.19;5021506;28;20047;-37
2023/11/30 07:14:53;;;;;;;11.40;5.68;;;;;;;2.42;100.00;98019.25;5024582;28;20132;-38
2023/11/30 07:17:23;;;;;;;11.63;6.05;;;;;;;2.47;100.00;98032.78;5016910;28;20129;-46
2023/11/30 07:19:51;;;;;;;18.05;6.18;;;;;;;2.36;100.00;98032.22;5018293;28;20053;-39
2023/11/30 07:22:18;;;;;;;11.75;5.82;;;;;;;2.39;100.00;98027.03;5022917;28;20040;-38
2023/11/30 07:24:47;;;;;;;9.00;5.13;;;;;;;2.21;100.00;97986.50;5019621;28;20569;-37
2023/11/30 07:27:17;;;;;;;10.50;5.25;;;;;;;2.31;100.00;98028.09;4991533;28;20046;-37
2023/11/30 07:29:44;;;;;;;13.35;6.00;;;;;;;2.25;100.00;98024.00;5028668;28;20041;-37
2023/11/30 07:32:10;;;;;;;15.90;5.68;;;;;;;2.24;100.00;98034.31;5028147;28;20049;-38
2023/11/30 07:34:36;;;;;;;15.02;6.47;;;;;;;2.26;100.00;98033.38;5015736;28;20693;-37
2023/11/30 07:37:03;;;;;;;17.15;5.97;;;;;;;2.36;100.00;98039.91;5015234;28;20891;-37
2023/11/30 07:39:29;;;;;;;14.38;5.97;;;;;;;2.10;100.00;97988.53;5014751;28;20037;-37
2023/11/30 07:41:55;;;;;;;10.65;4.78;;;;;;;2.39;100.00;98039.84;5017286;28;20049;-37
2023/11/30 07:44:22;;;;;;;9.68;5.00;;;;;;;2.21;100.00;98013.88;5025772;28;20033;-36
2023/11/30 07:46:48;;;;;;;9.77;4.70;;;;;;;2.21;100.00;98042.91;5019132;28;20049;-37
2023/11/30 07:49:13;;;;;;;11.18;5.50;;;;;;;2.16;100.00;98044.75;5018796;28;20433;-38
2023/11/30 07:51:39;;;;;;;8.77;4.97;;;;;;;2.01;100.00;98007.56;5018770;28;20081;-37
2023/11/30 07:54:05;;;;;;;11.38;5.40;;;;;;;1.94;100.00;98000.06;5019222;28;20211;-37
2023/11/30 07:56:31;;;;;;;10.43;5.45;;;;;;;2.22;100.00;98043.75;5006782;28;20057;-36
2023/11/30 07:58:57;;;;;;;16.13;5.93;;;;;;;2.13;100.00;98057.66;5018783;28;20034;-40
2023/11/30 08:01:24;;;;;;;10.77;5.60;;;;;;;1.80;100.00;98038.88;5014581;28;20162;-38
2023/11/30 08:03:49;;;;;;;9.13;3.92;;;;;;;1.89;100.00;98086.47;5022339;28;20036;-36
2023/11/30 08:06:15;;;;;;;7.25;4.22;;;;;;;1.66;100.00;98064.84;5026727;28;20493;-36
2023/11/30 08:08:41;;;;;;;8.35;4.25;;;;;;;1.54;100.00;98065.16;5027300;28;20131;-37
2023/11/30 08:11:07;;;;;;;8.60;4.05;;;;;;;1.50;100.00;98070.38;5025576;28;20033;-37
2023/11/30 08:13:33;;;;;;;10.48;4.60;;;;;;;1.44;100.00;98062.84;5010747;28;20042;-36
2023/11/30 08:16:04;;;;;;;9.40;4.65;;;;;;;1.41;100.00;98056.09;5013981;28;20045;-44
2023/11/30 08:18:31;;;;;;;8.60;4.05;;;;;;;1.23;100.00;98029.19;5015284;28;20037;-37
2023/11/30 08:21:02;;;;;;;5.85;4.03;;;;;;;1.56;100.00;98086.44;5005049;28;20045;-38
2023/11/30 08:23:28;;;;;;;9.63;4.35;;;;;;;1.32;100.00;98055.44;5012648;28;20514;-37
2023/11/30 08:25:54;;;;;;;15.27;5.70;;;;;;;1.48;100.00;98079.81;5014323;28;20100;-38
2023/11/30 08:28:21;;;;;;;10.82;5.28;;;;;;;1.51;100.00;98077.19;5061133;28;20470;-37
2023/11/30 08:30:47;;;;;;;8.48;4.55;;;;;;;1.53;100.00;98090.78;5029741;28;20052;-37
2023/11/30 08:33:13;;;;;;;13.90;4.32;;;;;;;1.48;100.00;98075.53;5024377;28;20052;-38
2023/11/30 08:35:39;;;;;;;9.77;4.72;;;;;;;1.43;100.00;98081.63;5021158;28;20042;-38
2023/11/30 08:38:05;;;;;;;11.90;5.18;;;;;;;1.42;100.00;98077.38;5023721;28;20045;-37
2023/11/30 08:40:31;;;;;;;13.68;4.93;;;;;;;1.48;100.00;98067.00;5029640;28;20091;-37
2023/11/30 08:42:57;;;;;;;11.10;5.20;;;;;;;1.49;100.00;98073.81;5027455;28;20947;-36
2023/11/30 08:45:23;;;;;;;11.80;5.65;;;;;;;1.42;100.00;98073.13;5035504;28;20033;-35
2023/11/30 08:47:49;;;;;;;11.52;5.20;;;;;;;1.48;100.00;98072.97;5015598;28;20047;-36
2023/11/30 08:50:16;;;;;;;8.85;4.68;;;;;;;1.54;100.00;98075.41;5034637;28;20038;-37
2023/11/30 08:52:41;;;;;;;9.25;5.40;;;;;;;1.55;100.00;98074.53;5030537;28;20133;-37
2023/11/30 08:55:07;;;;;;;11.93;5.28;;;;;;;1.61;100.00;98076.09;5029763;28;20144;-35
2023/11/30 08:57:33;;;;;;;10.48;4.85;;;;;;;1.57;100.00;98087.28;5001811;28;20046;-37
2023/11/30 08:59:59;;;;;;;11.93;5.25;;;;;;;1.45;100.00;98070.50;5025047;28;20046;-37
2023/11/30 09:02:25;;;;;;;9.45;4.47;;;;;;;1.45;100.00;98088.41;5029362;28;20068;-36
2023/11/30 09:04:51;;;;;;;9.88;4.47;;;;;;;1.46;100.00;98096.94;5028569;28;20049;-36
2023/11/30 09:07:18;;;;;;;11.40;4.65;;;;;;;1.48;100.00;98093.47;5027924;28;20069;-35
2023/11/30 09:09:44;;;;;;;5.50;3.28;;;;;;;1.41;100.00;98091.94;5027638;28;20044;-37
2023/11/30 09:12:11;;;;;;;10.55;5.22;;;;;;;1.29;100.00;98084.53;5025309;28;20048;-36
2023/11/30 09:14:38;;;;;;;5.97;3.50;;;;;;;1.16;100.00;98083.13;5031713;28;20045;-39
2023/11/30 09:17:04;;;;;;;5.53;3.47;;;;;;;1.16;100.00;98094.19;4974514;28;20430;-37
2023/11/30 09:19:31;;;;;;;10.77;4.53;;;;;;;1.17;100.00;98088.22;5023915;28;20433;-38
2023/11/30 09:21:57;;;;;;;9.85;4.80;;;;;;;1.24;100.00;98084.63;5029971;28;20129;-37
2023/11/30 09:24:23;;;;;;;9.23;4.40;;;;;;;1.28;100.00;98090.53;5030060;28;20074;-38
2023/11/30 09:26:53;;;;;;;8.35;3.65;;;;;;;1.27;100.00;98089.69;5016733;28;20049;-39
2023/11/30 09:29:19;;;;;;;13.00;4.88;;;;;;;1.33;100.00;98087.84;5036117;28;20040;-37
2023/11/30 09:31:46;;;;;;;5.25;3.03;;;;;;;1.29;100.00;98084.53;5019678;28;20045;-36
2023/11/30 09:34:12;;;;;;;7.63;4.57;;;;;;;1.31;100.00;98081.94;5026878;28;20038;-36
2023/11/30 09:36:39;;;;;;;10.38;4.25;;;;;;;1.27;100.00;98064.09;5029081;28;20048;-36
2023/11/30 09:39:09;;;;;;;4.97;3.03;;;;;;;1.06;100.00;98063.72;5032083;28;20076;-37
2023/11/30 09:41:38;;;;;;;7.60;4.15;;;;;;;0.96;100.00;98070.78;5019198;28;20059;-37
2023/11/30 09:44:06;;;;;;;8.63;4.60;;;;;;;1.14;100.00;98092.56;5012224;28;20056;-36
2023/11/30 09:46:32;;;;;;;5.75;3.70;;;;;;;1.24;100.00;98094.03;5027200;28;20111;-36
2023/11/30 09:49:02;;;;;;;7.93;3.80;;;;;;;1.11;100.00;98095.16;5025697;28;20138;-36
2023/11/30 09:51:28;;;;;;;9.80;3.70;;;;;;;0.90;100.00;98070.91;5026998;28;20053;-38
2023/11/30 09:53:57;;;;;;;12.13;4.50;;;;;;;1.00;100.00;98092.00;5031027;28;20068;-37
2023/11/30 09:56:27;;;;;;;8.25;4.80;;;;;;;1.10;100.00;98101.19;5008424;28;20040;-37
2023/11/30 09:58:55;;;;;;;10.13;4.20;;;;;;;1.13;100.00;98104.50;5015261;28;20524;-36
2023/11/30 10:01:24;;;;;;;8.10;3.70;;;;;;;1.12;100.00;98104.53;5026825;28;20128;-37
2023/11/30 10:03:51;;;;;;;10.18;5.07;;;;;;;1.02;100.00;98090.25;5020556;28;20792;-37
2023/11/30 10:06:18;;;;;;;10.68;4.82;;;;;;;0.83;100.00;98077.03;5027665;28;20049;-36
2023/11/30 10:08:44;;;;;;;8.32;4.43;;;;;;;1.16;100.00;98107.00;5010460;28;20563;-37
2023/11/30 10:11:10;;;;;;;5.22;2.80;;;;;;;1.10;100.00;98107.13;5008612;28;20041;-37
2023/11/30 10:13:36;;;;;;;10.95;3.38;;;;;;;0.92;100.00;98119.47;5027558;28;20096;-37
2023/11/30 10:16:06;;;;;;;8.95;3.92;;;;;;;0.89;100.00;98117.00;5027744;28;20528;-37
2023/11/30 10:18:34;;;;;;;6.95;3.17;;;;;;;0.74;100.00;98116.41;5031733;28;20064;-37
2023/11/30 10:21:01;;;;;;;6.03;2.95;;;;;;;0.69;100.00;98136.13;5009823;28;20072;-36
2023/11/30 10:23:29;;;;;;;4.10;2.28;;;;;;;0.54;100.00;98120.25;5032654;28;20128;-37
2023/11/30 10:25:56;;;;;;;7.47;2.88;;;;;;;0.47;100.00;98113.59;5026605;28;20072;-36
2023/11/30 10:28:22;;;;;;;5.22;2.88;;;;;;;0.57;100.00;98140.66;5029433;28;20041;-37
2023/11/30 10:30:55;;;;;;;4.28;2.58;;;;;;;0.38;100.00;98094.97;5025244;28;20428;-38
2023/11/30 10:33:23;;;;;;;3.92;2.58;;;;;;;0.40;100.00;98100.91;5014927;28;20041;-37
2023/11/30 10:35:52;;;;;;;3.35;1.88;;;;;;;0.34;100.00;98095.06;5025778;28;20425;-38
2023/11/30 10:38:31;;;;;;;5.57;2.38;;;;;;;0.53;98.46;98129.63;5027801;28;20561;-37
2023/11/30 10:41:25;;;;;;;5.30;3.00;;;;;;;0.57;97.19;98141.50;5029118;28;20057;-37
2023/11/30 10:43:54;;;;;;;5.82;2.28;;;;;;;0.72;98.92;98142.91;5061330;28;20095;-37
2023/11/30 10:46:23;;;;;;;5.18;2.65;;;;;;;0.72;99.11;98140.34;5016423;28;20049;-38
2023/11/30 10:48:49;;;;;;;2.75;1.95;;;;;;;0.60;94.79;98135.47;4993729;28;20128;-37
2023/11/30 10:51:15;;;;;;;4.07;2.28;;;;;;;0.54;92.44;98133.03;5032410;28;20099;-37
2023/11/30 10:53:59;;;;;;;3.05;1.58;;;;;;;0.65;91.13;98144.72;5032068;28;20033;-40
2023/11/30 10:56:26;;;;;;;2.35;1.60;;;;;;;0.62;87.79;98154.19;5015878;28;20076;-37
2023/11/30 10:58:52;;;;;;;3.97;2.40;;;;;;;0.31;83.95;98118.16;5023567;28;20052;-38
2023/11/30 11:01:18;;;;;;;3.25;1.83;;;;;;;0.42;83.05;98144.31;5011149;28;20145;-37
2023/11/30 11:03:52;;;;;;;3.60;2.25;;;;;;;0.50;85.83;98147.59;5002138;28;20116;-37
2023/11/30 11:06:24;;;;;;;3.55;2.17;;;;;;;0.51;85.88;98164.63;5022421;28;20433;-37
2023/11/30 11:09:15;;;;;;;2.40;1.27;;;;;;;0.43;86.13;98136.63;5035405;28;20191;-38
2023/11/30 11:11:43;;;;;;;3.05;1.30;;;;;;;0.46;88.30;98147.69;5029280;28;20049;-39
2023/11/30 11:14:28;;;;;;;3.03;2.08;;;;;;;0.46;87.60;98152.78;5024719;28;20119;-37
2023/11/30 11:17:02;;;;;;;3.75;2.03;;;;;;;0.40;87.34;98164.81;5019311;28;20045;-38
2023/11/30 11:19:32;;;;;;;3.45;1.90;;;;;;;0.33;85.09;98162.38;5045011;28;20520;-38
2023/11/30 11:21:58;;;;;;;4.50;2.65;;;;;;;0.34;86.72;98169.19;5020665;28;20564;-37
2023/11/30 11:24:25;;;;;;;4.25;1.60;;;;;;;0.19;83.91;98177.13;5023081;28;20475;-38
2023/11/30 11:26:58;;;;;;;3.50;2.17;;;;;;;0.01;81.79;98180.81;5001778;28;20045;-37
2023/11/30 11:29:24;;;;;;;3.03;1.75;;;;;;;-0.03;84.22;98197.06;5022020;28;20056;-38